Terminal Aerodrome Forecast
Issued by NWS Cleveland, OH

Home | Current Version | Previous Version | Text Only | Print | Product List | Glossary On
Versions: 1 2 3 4 5 6 7 8 9 10 11 12 13 14 15 16 17 18 19 20
000
FTUS41 KCLE 021123
TAFMFD
TAF
KMFD 021123Z 0212/0312 04005KT 2SM BR SCT001 BKN006
      TEMPO 0212/0213 1/4SM FG BKN001
     FM021300 03006KT 5SM BR BKN012
      TEMPO 0213/0214 2SM BR BKN006
     FM021500 04006KT P6SM SCT025 BKN045
     FM021800 02009KT P6SM SCT045 BKN250
     FM030100 04003KT P6SM SCT250=

USA.gov is the U.S. government's official web portal to all federal, state and local government web resources and services.